Terminal Aerodrome Forecast
Issued by NWS Corpus Christi, TX

Home | Current Version | Previous Version | Text Only | Print | Product List | Glossary On
Versions: 1 2 3 4 5 6 7 8 9 10 11 12 13 14 15
561
FTUS44 KCRP 061135 AAA
TAFVCT
TAF AMD
KVCT 061135Z 0612/0712 32010KT P6SM FEW025 SCT090
      TEMPO 0612/0614 4SM TSRA BR SCT025CB BKN060
     FM061600 33021G32KT P6SM SKC
     FM062300 34008KT P6SM SKC
     FM070400 03004KT P6SM FEW250=

USA.gov is the U.S. government's official web portal to all federal, state and local government web resources and services.